Time;durP1;ratioP1;P1;durP2;ratioP2;P2;SDS_P1;SDS_P2;PMS_P1;PMS_P2;Temp;Humidity;BMP_temperature;BMP_pressure;BME280_temperature;BME280_humidity;BME280_pressure;Samples;Min_cycle;Max_cycle;Signal;HPM_P1;HPM_P2
2023/09/02 00:00:43;;;;;;;9.18;7.18;;;13.40;99.90;;;;;;5032310;28;20103;-70
2023/09/02 00:03:09;;;;;;;9.10;6.95;;;13.50;99.90;;;;;;5028741;28;20079;-70
2023/09/02 00:05:35;;;;;;;10.48;7.85;;;13.40;99.90;;;;;;5048314;28;20068;-70
2023/09/02 00:08:00;;;;;;;9.60;7.13;;;13.50;99.90;;;;;;5046708;28;20045;-70
2023/09/02 00:10:26;;;;;;;8.95;6.60;;;13.40;99.90;;;;;;5047134;28;20613;-70
2023/09/02 00:12:51;;;;;;;10.32;7.40;;;13.50;99.90;;;;;;5041287;28;20068;-70
2023/09/02 00:15:17;;;;;;;9.55;6.90;;;13.50;99.90;;;;;;5012759;28;20132;-70
2023/09/02 00:17:43;;;;;;;8.80;7.47;;;13.50;99.90;;;;;;5028524;28;20041;-70
2023/09/02 00:20:09;;;;;;;12.20;8.35;;;13.40;99.90;;;;;;5030746;28;20126;-70
2023/09/02 00:22:35;;;;;;;9.82;7.60;;;13.50;99.90;;;;;;5030535;28;20107;-70
2023/09/02 00:25:00;;;;;;;11.32;7.50;;;13.40;99.90;;;;;;5015166;28;20451;-70
2023/09/02 00:27:26;;;;;;;9.73;7.22;;;13.40;99.90;;;;;;5046519;28;20045;-70
2023/09/02 00:29:52;;;;;;;10.75;8.25;;;13.40;99.90;;;;;;5029705;28;20496;-70
2023/09/02 00:32:17;;;;;;;10.80;7.28;;;13.40;99.90;;;;;;5044088;28;20428;-71
2023/09/02 00:34:45;;;;;;;9.38;7.22;;;13.50;99.90;;;;;;5044746;28;20408;-71
2023/09/02 00:37:11;;;;;;;11.38;7.90;;;13.40;99.90;;;;;;5045292;28;20041;-70
2023/09/02 00:39:37;;;;;;;9.30;7.22;;;13.30;99.90;;;;;;5047158;28;20079;-71
2023/09/02 00:42:06;;;;;;;10.65;7.47;;;13.40;99.90;;;;;;5044262;28;20459;-71
2023/09/02 00:44:34;;;;;;;10.10;7.05;;;13.30;99.90;;;;;;5047846;28;20044;-71
2023/09/02 00:47:02;;;;;;;11.45;7.43;;;13.30;99.90;;;;;;5047691;28;20412;-70
2023/09/02 00:49:28;;;;;;;11.35;7.20;;;13.30;99.90;;;;;;5027634;28;20128;-71
2023/09/02 00:51:53;;;;;;;7.85;6.85;;;13.30;99.90;;;;;;5045183;28;20232;-69
2023/09/02 00:54:19;;;;;;;9.40;7.32;;;13.30;99.90;;;;;;5047467;28;20060;-70
2023/09/02 00:56:45;;;;;;;11.18;7.32;;;13.20;99.90;;;;;;5048154;28;20041;-70
2023/09/02 00:59:11;;;;;;;9.60;6.85;;;13.20;99.90;;;;;;5044320;28;20415;-71
2023/09/02 01:01:41;;;;;;;9.35;6.78;;;13.20;99.90;;;;;;5029514;28;20102;-71
2023/09/02 01:04:07;;;;;;;11.85;7.75;;;13.20;99.90;;;;;;5047585;28;20071;-71
2023/09/02 01:06:34;;;;;;;10.68;7.80;;;13.20;99.90;;;;;;5042699;28;20061;-71
2023/09/02 01:09:00;;;;;;;14.75;7.70;;;13.10;99.90;;;;;;5044402;28;20540;-71
2023/09/02 01:11:27;;;;;;;11.52;7.15;;;13.10;99.90;;;;;;5045579;28;20049;-71
2023/09/02 01:13:52;;;;;;;9.27;7.35;;;13.10;99.90;;;;;;5047303;28;20048;-71
2023/09/02 01:16:18;;;;;;;9.85;7.05;;;13.10;99.90;;;;;;5045853;28;20041;-71
2023/09/02 01:18:44;;;;;;;9.20;8.05;;;13.10;99.90;;;;;;5046618;28;20385;-71
2023/09/02 01:21:26;;;;;;;12.13;8.02;;;13.10;99.90;;;;;;5028792;28;20052;-71
2023/09/02 01:24:31;;;;;;;9.40;7.32;;;13.10;99.90;;;;;;5044630;28;20079;-71
2023/09/02 01:27:17;;;;;;;10.40;7.60;;;13.10;99.90;;;;;;5044085;28;20041;-71
2023/09/02 01:30:10;;;;;;;10.20;7.63;;;13.10;99.90;;;;;;5045897;28;20040;-70
2023/09/02 01:32:40;;;;;;;9.90;7.75;;;13.20;99.90;;;;;;5027074;28;20041;-71
2023/09/02 01:35:07;;;;;;;10.10;6.93;;;13.10;99.90;;;;;;5029154;28;20073;-71
2023/09/02 01:37:34;;;;;;;10.25;7.05;;;13.10;99.90;;;;;;5047600;28;20041;-71
2023/09/02 01:40:05;;;;;;;10.00;6.93;;;13.10;99.90;;;;;;5046465;28;20048;-71
2023/09/02 01:42:32;;;;;;;9.05;7.63;;;13.00;99.90;;;;;;5040045;28;20428;-71
2023/09/02 01:44:58;;;;;;;10.32;8.23;;;13.00;99.90;;;;;;5047493;28;20094;-71
2023/09/02 01:47:24;;;;;;;11.40;8.85;;;13.00;99.90;;;;;;5027712;28;20049;-70
2023/09/02 01:49:51;;;;;;;12.70;8.77;;;13.00;99.90;;;;;;5042282;28;20083;-70
2023/09/02 01:52:18;;;;;;;13.48;8.50;;;13.00;99.90;;;;;;5229440;22;20505;-71
2023/09/02 01:54:44;;;;;;;11.13;8.82;;;13.00;99.90;;;;;;5082901;28;20522;-71
2023/09/02 01:57:11;;;;;;;11.88;9.15;;;13.00;99.90;;;;;;5075362;28;20032;-71
2023/09/02 01:59:36;;;;;;;12.45;8.23;;;13.00;99.90;;;;;;5070498;28;20552;-70
2023/09/02 02:02:02;;;;;;;11.18;8.05;;;13.00;99.90;;;;;;5083439;28;20126;-70
2023/09/02 02:04:36;;;;;;;12.10;9.57;;;12.90;99.90;;;;;;5087018;28;20081;-71
2023/09/02 02:07:14;;;;;;;12.60;8.07;;;12.90;99.90;;;;;;5086735;28;20046;-71
2023/09/02 02:09:53;;;;;;;11.70;8.93;;;12.90;99.90;;;;;;5070094;28;20048;-72
2023/09/02 02:12:20;;;;;;;14.60;9.63;;;12.90;99.90;;;;;;5083521;28;20058;-69
2023/09/02 02:14:46;;;;;;;12.80;8.80;;;12.80;99.90;;;;;;5068567;28;20045;-70
2023/09/02 02:17:13;;;;;;;10.35;8.68;;;12.90;99.90;;;;;;5075090;28;20412;-70
2023/09/02 02:19:38;;;;;;;11.07;8.57;;;12.90;99.90;;;;;;5081888;28;20062;-70
2023/09/02 02:22:05;;;;;;;11.93;8.20;;;12.90;99.90;;;;;;5085493;28;20079;-72
2023/09/02 02:24:30;;;;;;;10.65;8.00;;;12.80;99.90;;;;;;5076817;28;20067;-71
2023/09/02 02:26:56;;;;;;;14.27;8.85;;;12.80;99.90;;;;;;5076808;28;20040;-71
2023/09/02 02:29:22;;;;;;;12.90;8.55;;;12.80;99.90;;;;;;5078745;28;20423;-73
2023/09/02 02:31:48;;;;;;;13.65;8.65;;;12.80;99.90;;;;;;5077892;28;20526;-71
2023/09/02 02:34:14;;;;;;;11.82;8.35;;;12.80;99.90;;;;;;5077056;28;20112;-71
2023/09/02 02:36:40;;;;;;;11.40;9.27;;;12.80;99.90;;;;;;5080832;28;20537;-71
2023/09/02 02:39:06;;;;;;;10.57;7.88;;;12.80;99.90;;;;;;5077546;28;20190;-71
2023/09/02 02:41:32;;;;;;;13.20;8.57;;;12.80;99.90;;;;;;5079349;28;20132;-71
2023/09/02 02:43:59;;;;;;;10.25;8.13;;;12.80;99.90;;;;;;5073835;28;20119;-71
2023/09/02 02:46:25;;;;;;;11.07;8.00;;;12.80;99.90;;;;;;5083201;28;20036;-71
2023/09/02 02:48:50;;;;;;;14.10;8.40;;;12.80;99.90;;;;;;5066983;28;20043;-71
2023/09/02 02:51:16;;;;;;;12.75;8.65;;;12.80;99.90;;;;;;5084184;28;20510;-71
2023/09/02 02:53:42;;;;;;;13.63;8.85;;;12.80;99.90;;;;;;5104214;28;20123;-70
2023/09/02 02:56:07;;;;;;;14.07;9.45;;;12.80;99.90;;;;;;5094401;28;20398;-70
2023/09/02 02:58:33;;;;;;;12.73;9.57;;;12.70;99.90;;;;;;5101071;28;20067;-70
2023/09/02 03:01:04;;;;;;;11.05;8.75;;;12.80;99.90;;;;;;5103659;28;20067;-70
2023/09/02 03:03:30;;;;;;;11.75;8.85;;;12.80;99.90;;;;;;5095696;28;20453;-70
2023/09/02 03:05:56;;;;;;;14.15;9.70;;;12.80;99.90;;;;;;5082606;28;20072;-70
2023/09/02 03:08:22;;;;;;;13.23;9.05;;;12.80;99.90;;;;;;5106875;28;20068;-70
2023/09/02 03:10:58;;;;;;;13.15;9.43;;;12.80;99.90;;;;;;5091592;28;20044;-70
2023/09/02 03:13:33;;;;;;;12.68;9.15;;;12.80;99.90;;;;;;5055984;28;20097;-70
2023/09/02 03:16:02;;;;;;;14.32;9.43;;;12.80;99.90;;;;;;5053410;28;21496;-70
2023/09/02 03:18:28;;;;;;;11.45;9.05;;;12.80;99.90;;;;;;5088108;28;20075;-70
2023/09/02 03:20:55;;;;;;;11.23;8.43;;;12.70;99.90;;;;;;5062600;28;20054;-70
2023/09/02 03:23:22;;;;;;;13.27;8.75;;;12.80;99.90;;;;;;5082039;28;23099;-70
2023/09/02 03:25:47;;;;;;;13.00;8.75;;;12.80;99.90;;;;;;5084400;28;20119;-70
2023/09/02 03:28:13;;;;;;;12.30;9.13;;;12.80;99.90;;;;;;5093170;28;20134;-70
2023/09/02 03:30:39;;;;;;;11.90;9.57;;;12.80;99.90;;;;;;5115341;27;20409;-70
2023/09/02 03:33:04;;;;;;;11.60;8.95;;;12.80;99.90;;;;;;5103827;27;20046;-70
2023/09/02 03:35:37;;;;;;;14.93;9.43;;;12.80;99.90;;;;;;5112943;27;20450;-70
2023/09/02 03:38:03;;;;;;;12.43;9.40;;;12.80;99.90;;;;;;5120358;27;20544;-70
2023/09/02 03:40:29;;;;;;;12.68;9.93;;;12.80;99.90;;;;;;5095014;27;20043;-70
2023/09/02 03:42:55;;;;;;;12.50;8.77;;;12.80;99.90;;;;;;5112536;27;20035;-70
2023/09/02 03:45:21;;;;;;;11.70;9.38;;;12.90;99.90;;;;;;5111469;27;20066;-70
2023/09/02 03:47:46;;;;;;;11.43;8.82;;;12.80;99.90;;;;;;5126816;27;20071;-70
2023/09/02 03:50:12;;;;;;;14.93;9.45;;;12.80;99.90;;;;;;5110252;28;20180;-70
2023/09/02 03:52:38;;;;;;;12.02;9.05;;;12.80;99.90;;;;;;5089556;28;20036;-70
2023/09/02 03:55:04;;;;;;;13.85;9.63;;;12.80;99.90;;;;;;5096063;28;20552;-70
2023/09/02 03:57:31;;;;;;;14.45;10.15;;;12.80;99.90;;;;;;5097786;28;20406;-69
2023/09/02 03:59:56;;;;;;;12.88;9.07;;;12.80;99.90;;;;;;5109914;28;20047;-70
2023/09/02 04:02:22;;;;;;;12.05;8.95;;;12.80;99.90;;;;;;5090266;28;20035;-70
2023/09/02 04:04:48;;;;;;;13.45;9.15;;;12.80;99.90;;;;;;5110774;28;20044;-70
2023/09/02 04:07:13;;;;;;;13.93;9.50;;;12.80;99.90;;;;;;5109824;28;20048;-70
2023/09/02 04:09:39;;;;;;;12.60;9.02;;;12.70;99.90;;;;;;5108729;28;20181;-70
2023/09/02 04:12:05;;;;;;;14.63;10.25;;;12.70;99.90;;;;;;5107086;28;20403;-70
2023/09/02 04:14:31;;;;;;;12.90;9.45;;;12.80;99.90;;;;;;5098267;28;20047;-69
2023/09/02 04:16:59;;;;;;;12.55;9.70;;;12.70;99.90;;;;;;5099343;28;20036;-70
2023/09/02 04:19:25;;;;;;;12.35;9.50;;;12.80;99.90;;;;;;5097267;28;20063;-70
2023/09/02 04:21:52;;;;;;;13.02;9.82;;;12.70;99.90;;;;;;5089295;28;20082;-70
2023/09/02 04:24:18;;;;;;;13.27;9.60;;;12.70;99.90;;;;;;5089732;28;20031;-70
2023/09/02 04:26:44;;;;;;;17.63;10.23;;;12.60;99.90;;;;;;5107546;28;20376;-70
2023/09/02 04:29:09;;;;;;;17.42;9.70;;;12.70;99.90;;;;;;5091913;28;20059;-71
2023/09/02 04:31:35;;;;;;;13.98;9.40;;;12.60;99.90;;;;;;5090391;28;20047;-72
2023/09/02 04:34:00;;;;;;;13.15;9.50;;;12.60;99.90;;;;;;5093083;28;20051;-72
2023/09/02 04:36:26;;;;;;;17.73;9.20;;;12.60;99.90;;;;;;5078954;28;20075;-70
2023/09/02 04:38:52;;;;;;;15.63;10.25;;;12.60;99.90;;;;;;5091075;28;20044;-71
2023/09/02 04:41:18;;;;;;;15.82;10.32;;;12.50;99.90;;;;;;5089072;28;20036;-71
2023/09/02 04:43:43;;;;;;;15.88;9.07;;;12.60;99.90;;;;;;5096904;28;20040;-71
2023/09/02 04:46:09;;;;;;;16.20;9.57;;;12.50;99.90;;;;;;5082045;28;20069;-72
2023/09/02 04:48:35;;;;;;;15.02;9.93;;;12.50;99.90;;;;;;5096541;27;20039;-73
2023/09/02 04:51:03;;;;;;;15.05;9.68;;;12.60;99.90;;;;;;5089070;28;20536;-72
2023/09/02 04:53:29;;;;;;;13.90;9.57;;;12.50;99.90;;;;;;5098519;28;20036;-73
2023/09/02 04:55:55;;;;;;;16.75;9.40;;;12.60;99.90;;;;;;5082397;28;20040;-71
2023/09/02 04:58:23;;;;;;;14.05;9.32;;;12.50;99.90;;;;;;5077586;28;20052;-71
2023/09/02 05:00:49;;;;;;;12.02;8.77;;;12.50;99.90;;;;;;5078846;28;20039;-71
2023/09/02 05:03:14;;;;;;;13.80;8.95;;;12.50;99.90;;;;;;5066785;28;20047;-71
2023/09/02 05:05:41;;;;;;;16.48;8.77;;;12.50;99.90;;;;;;5079840;28;20398;-71
2023/09/02 05:08:06;;;;;;;13.15;8.40;;;12.50;99.90;;;;;;5086678;28;20047;-71
2023/09/02 05:10:32;;;;;;;12.80;8.90;;;12.50;99.90;;;;;;5099873;28;20042;-71
2023/09/02 05:12:58;;;;;;;15.13;9.30;;;12.50;99.90;;;;;;5075867;28;20099;-71
2023/09/02 05:15:24;;;;;;;12.65;8.98;;;12.50;99.90;;;;;;5082392;28;20127;-72
2023/09/02 05:17:50;;;;;;;14.82;8.60;;;12.60;99.90;;;;;;5084773;28;20054;-72
2023/09/02 05:20:16;;;;;;;12.20;8.90;;;12.50;99.90;;;;;;5081688;28;20068;-71
2023/09/02 05:22:42;;;;;;;13.45;8.75;;;12.50;99.90;;;;;;5089654;28;20627;-71
2023/09/02 05:25:08;;;;;;;11.30;8.52;;;12.50;99.90;;;;;;5104702;28;20043;-71
2023/09/02 05:27:34;;;;;;;14.13;9.85;;;12.50;99.90;;;;;;5108393;28;20035;-71
2023/09/02 05:29:59;;;;;;;13.52;10.00;;;12.60;99.90;;;;;;5100144;28;20510;-71
2023/09/02 05:32:25;;;;;;;14.40;9.38;;;12.50;99.90;;;;;;5078968;28;20040;-71
2023/09/02 05:34:51;;;;;;;18.25;10.50;;;12.50;99.90;;;;;;5090859;28;20058;-72
2023/09/02 05:37:16;;;;;;;12.40;9.70;;;12.60;99.90;;;;;;5079623;28;20044;-72
2023/09/02 05:39:42;;;;;;;14.38;9.65;;;12.60;99.90;;;;;;5096848;28;20044;-72
2023/09/02 05:42:08;;;;;;;13.70;9.82;;;12.70;99.90;;;;;;5064902;28;20036;-71
2023/09/02 05:44:37;;;;;;;13.00;9.93;;;12.70;99.90;;;;;;5090355;28;20031;-71
2023/09/02 05:47:03;;;;;;;13.35;10.60;;;12.70;99.90;;;;;;5088494;28;20181;-71
2023/09/02 05:49:29;;;;;;;13.80;9.35;;;12.90;99.90;;;;;;5081081;28;20642;-72
2023/09/02 05:51:55;;;;;;;11.88;9.20;;;12.90;99.90;;;;;;5106260;28;20073;-72
2023/09/02 05:54:21;;;;;;;13.77;9.77;;;12.90;99.90;;;;;;5104172;28;20218;-71
2023/09/02 05:56:47;;;;;;;14.98;9.80;;;13.00;99.90;;;;;;5103174;28;20104;-71
2023/09/02 05:59:13;;;;;;;14.05;9.73;;;13.10;99.90;;;;;;5092668;28;20127;-71
2023/09/02 06:01:38;;;;;;;14.45;9.65;;;13.20;99.90;;;;;;5116040;28;20044;-72
2023/09/02 06:04:04;;;;;;;11.10;9.02;;;13.30;99.90;;;;;;5096035;28;20047;-73
2023/09/02 06:06:30;;;;;;;13.40;9.30;;;13.30;99.90;;;;;;5101684;28;20081;-72
2023/09/02 06:08:55;;;;;;;13.00;9.20;;;13.50;99.90;;;;;;5111467;28;20060;-71
2023/09/02 06:11:21;;;;;;;14.18;9.45;;;13.60;99.90;;;;;;5078405;28;20168;-71
2023/09/02 06:13:47;;;;;;;11.57;9.48;;;13.70;99.90;;;;;;5099670;28;20070;-72
2023/09/02 06:16:12;;;;;;;13.40;8.90;;;13.80;99.90;;;;;;5085853;28;20123;-71
2023/09/02 06:18:38;;;;;;;15.15;9.60;;;13.90;99.90;;;;;;5090345;28;20040;-72
2023/09/02 06:21:12;;;;;;;13.38;9.23;;;13.90;99.90;;;;;;5088038;28;20048;-72
2023/09/02 06:23:40;;;;;;;11.65;8.95;;;14.10;99.90;;;;;;5076040;28;20459;-72
2023/09/02 06:26:06;;;;;;;12.68;9.38;;;14.30;99.90;;;;;;5103970;28;20082;-72
2023/09/02 06:28:33;;;;;;;13.50;9.18;;;14.30;99.90;;;;;;5093277;28;20055;-72
2023/09/02 06:31:04;;;;;;;16.00;9.80;;;14.40;99.90;;;;;;5067845;28;20036;-70
2023/09/02 06:33:29;;;;;;;12.20;9.32;;;14.60;99.90;;;;;;5073896;28;20039;-72
2023/09/02 06:35:55;;;;;;;13.73;9.43;;;14.70;99.90;;;;;;5104963;28;20039;-72
2023/09/02 06:38:20;;;;;;;14.35;10.18;;;14.90;99.90;;;;;;5095927;28;20094;-72
2023/09/02 06:40:46;;;;;;;13.63;10.25;;;14.90;99.90;;;;;;5095949;28;20517;-72
2023/09/02 06:43:12;;;;;;;13.38;10.48;;;15.10;99.90;;;;;;5081238;28;20458;-72
2023/09/02 06:45:38;;;;;;;14.20;10.45;;;15.20;99.90;;;;;;5110043;28;20048;-72
2023/09/02 06:48:04;;;;;;;16.27;10.55;;;15.40;99.90;;;;;;5075625;28;20043;-72
2023/09/02 06:50:31;;;;;;;13.80;9.30;;;15.50;99.90;;;;;;5084968;28;20095;-71
2023/09/02 06:52:57;;;;;;;14.95;10.25;;;15.60;99.90;;;;;;5092239;28;20388;-72
2023/09/02 06:55:23;;;;;;;12.07;9.95;;;15.70;99.90;;;;;;5103334;28;20055;-72
2023/09/02 06:57:49;;;;;;;12.25;9.82;;;15.90;99.90;;;;;;5068415;28;20071;-71
2023/09/02 07:00:15;;;;;;;12.95;9.35;;;16.00;99.90;;;;;;5105604;28;20047;-72
2023/09/02 07:02:42;;;;;;;15.85;10.18;;;16.10;99.90;;;;;;5068644;28;20109;-72
2023/09/02 07:05:08;;;;;;;12.48;9.77;;;16.20;99.90;;;;;;5102256;28;20043;-72
2023/09/02 07:07:33;;;;;;;11.13;8.75;;;16.40;99.90;;;;;;5084470;28;20123;-72
2023/09/02 07:09:59;;;;;;;10.73;8.88;;;16.50;99.90;;;;;;5098053;28;20127;-72
2023/09/02 07:12:25;;;;;;;11.38;9.02;;;16.50;99.90;;;;;;5076829;28;20443;-72
2023/09/02 07:14:51;;;;;;;12.15;9.32;;;16.70;99.90;;;;;;5097549;28;20101;-72
2023/09/02 07:17:17;;;;;;;14.35;9.48;;;16.80;99.90;;;;;;5095471;28;20040;-72
2023/09/02 07:19:42;;;;;;;11.80;8.02;;;16.90;99.90;;;;;;5095721;28;20071;-72
2023/09/02 07:22:08;;;;;;;11.65;8.75;;;16.90;99.90;;;;;;5100869;28;20491;-72
2023/09/02 07:24:34;;;;;;;12.52;8.75;;;17.10;99.90;;;;;;5080391;28;20070;-72
2023/09/02 07:26:59;;;;;;;12.38;9.63;;;17.20;99.90;;;;;;5104566;28;20039;-72
2023/09/02 07:29:25;;;;;;;12.75;8.73;;;17.40;99.90;;;;;;5087776;28;20402;-72
2023/09/02 07:31:51;;;;;;;10.52;9.07;;;17.50;99.90;;;;;;5072265;28;20068;-71
2023/09/02 07:34:16;;;;;;;12.07;9.00;;;17.60;99.90;;;;;;5072322;28;20503;-72
2023/09/02 07:36:42;;;;;;;13.27;8.38;;;17.60;99.90;;;;;;5106444;28;20036;-71
2023/09/02 07:39:08;;;;;;;14.23;9.68;;;17.70;99.90;;;;;;5086362;28;20050;-73
2023/09/02 07:41:34;;;;;;;13.50;9.73;;;17.70;99.90;;;;;;5092823;28;20031;-72
2023/09/02 07:44:00;;;;;;;13.25;9.77;;;17.80;99.90;;;;;;5099990;28;20052;-73
2023/09/02 07:46:25;;;;;;;11.05;9.07;;;17.90;99.90;;;;;;5108362;28;20043;-72
2023/09/02 07:48:51;;;;;;;12.02;8.93;;;18.00;99.90;;;;;;5111303;28;20100;-72
2023/09/02 07:51:18;;;;;;;10.05;8.15;;;18.10;99.90;;;;;;5110652;27;20051;-73
2023/09/02 07:53:44;;;;;;;11.27;9.13;;;18.20;99.90;;;;;;5088529;27;20051;-72
2023/09/02 07:56:10;;;;;;;10.93;8.15;;;18.10;99.90;;;;;;5092372;28;20044;-71
2023/09/02 07:58:35;;;;;;;12.55;8.80;;;18.20;99.90;;;;;;5111593;27;20104;-71
2023/09/02 08:01:02;;;;;;;11.38;8.60;;;18.30;99.90;;;;;;5099699;27;20083;-72
2023/09/02 08:03:28;;;;;;;10.35;7.78;;;18.50;99.90;;;;;;5113654;27;20050;-71
2023/09/02 08:05:54;;;;;;;14.48;7.70;;;18.50;99.90;;;;;;5078513;27;20036;-71
2023/09/02 08:08:20;;;;;;;13.32;8.60;;;18.50;99.90;;;;;;5104802;27;20047;-71
2023/09/02 08:10:46;;;;;;;10.10;7.63;;;18.60;99.90;;;;;;5116816;27;20035;-71
2023/09/02 08:13:12;;;;;;;11.73;7.78;;;18.70;99.90;;;;;;5116401;27;20402;-71
2023/09/02 08:15:38;;;;;;;10.55;7.57;;;18.80;99.90;;;;;;5105018;27;20047;-72
2023/09/02 08:18:04;;;;;;;12.52;7.07;;;18.80;99.90;;;;;;5130260;27;20054;-72
2023/09/02 08:20:30;;;;;;;9.82;7.82;;;18.90;99.90;;;;;;5109095;27;20043;-72
2023/09/02 08:22:56;;;;;;;12.48;7.13;;;19.00;99.90;;;;;;5108535;27;20039;-71
2023/09/02 08:25:22;;;;;;;7.47;6.00;;;19.10;99.90;;;;;;5120889;27;20610;-71
2023/09/02 08:27:49;;;;;;;12.77;6.40;;;19.10;99.90;;;;;;5122649;27;20047;-71
2023/09/02 08:30:15;;;;;;;11.70;5.97;;;19.20;99.90;;;;;;5107399;27;20281;-70
2023/09/02 08:32:42;;;;;;;8.25;5.97;;;19.30;99.90;;;;;;5118681;27;20043;-71
2023/09/02 08:35:08;;;;;;;9.82;5.95;;;19.40;99.90;;;;;;5094785;27;20433;-71
2023/09/02 08:37:34;;;;;;;8.02;5.30;;;19.50;99.90;;;;;;5111799;27;20047;-70
2023/09/02 08:40:01;;;;;;;9.43;5.60;;;19.60;99.90;;;;;;5098388;27;20134;-71
2023/09/02 08:42:28;;;;;;;8.50;6.50;;;19.60;99.90;;;;;;5133316;27;20498;-71
2023/09/02 08:44:56;;;;;;;8.35;4.30;;;19.60;99.90;;;;;;5103657;27;20420;-71
2023/09/02 08:47:24;;;;;;;6.97;3.75;;;19.60;99.90;;;;;;5120481;27;20139;-70
2023/09/02 08:49:50;;;;;;;6.50;3.45;;;19.60;99.90;;;;;;5123146;27;20380;-71
2023/09/02 08:52:17;;;;;;;7.05;4.25;;;19.70;99.90;;;;;;5109306;27;20127;-71
2023/09/02 08:54:44;;;;;;;9.40;5.05;;;19.80;99.90;;;;;;5096992;28;20048;-72
2023/09/02 08:57:15;;;;;;;9.23;4.75;;;19.90;99.90;;;;;;5098016;27;20048;-71
2023/09/02 08:59:41;;;;;;;12.60;4.85;;;20.00;99.90;;;;;;5072325;28;20044;-72
2023/09/02 09:02:10;;;;;;;7.10;5.13;;;20.10;99.90;;;;;;5065161;28;20492;-71
2023/09/02 09:04:38;;;;;;;7.97;4.70;;;20.30;99.90;;;;;;5098347;28;20057;-70
2023/09/02 09:07:04;;;;;;;7.45;4.30;;;20.30;99.90;;;;;;5086610;28;20409;-71
2023/09/02 09:09:34;;;;;;;7.20;5.13;;;20.40;99.90;;;;;;5111946;27;20071;-72
2023/09/02 09:12:01;;;;;;;11.40;5.55;;;20.50;99.90;;;;;;5108582;27;20104;-71
2023/09/02 09:14:30;;;;;;;8.40;4.85;;;20.60;99.90;;;;;;5102740;27;20345;-72
2023/09/02 09:16:57;;;;;;;9.20;4.70;;;20.70;99.90;;;;;;5105369;28;20521;-71
2023/09/02 09:19:25;;;;;;;6.32;4.07;;;20.80;99.90;;;;;;5101752;27;20123;-72
2023/09/02 09:21:51;;;;;;;8.93;5.35;;;20.80;99.90;;;;;;5098519;27;20044;-72
2023/09/02 09:24:17;;;;;;;7.72;5.45;;;20.90;99.90;;;;;;5096811;27;20181;-72
2023/09/02 09:26:44;;;;;;;7.82;4.85;;;20.90;99.90;;;;;;5107921;27;20536;-71
2023/09/02 09:29:15;;;;;;;6.57;5.20;;;21.00;99.90;;;;;;5103401;28;20078;-71
2023/09/02 09:31:41;;;;;;;11.70;5.50;;;21.00;99.90;;;;;;5094321;28;20085;-71
2023/09/02 09:34:06;;;;;;;10.23;4.88;;;21.00;99.90;;;;;;5079629;28;20043;-71
2023/09/02 09:36:33;;;;;;;9.40;5.20;;;21.00;99.90;;;;;;5083439;28;20032;-71
2023/09/02 09:39:01;;;;;;;9.07;5.07;;;21.10;99.90;;;;;;5080154;28;20499;-71
2023/09/02 09:41:28;;;;;;;8.35;4.80;;;21.20;99.90;;;;;;5105825;27;20877;-71
2023/09/02 09:44:16;;;;;;;8.57;4.47;;;21.30;99.90;;;;;;5093844;28;20086;-71
2023/09/02 09:46:51;;;;;;;7.15;4.25;;;21.40;99.90;;;;;;5087316;27;20048;-70
2023/09/02 09:49:30;;;;;;;7.20;4.03;;;21.40;99.90;;;;;;5081966;28;20130;-70
2023/09/02 09:51:59;;;;;;;6.60;3.92;;;21.50;99.90;;;;;;5106362;27;20105;-70
2023/09/02 09:54:45;;;;;;;6.57;3.70;;;21.70;99.90;;;;;;5091358;28;20043;-71
2023/09/02 09:57:29;;;;;;;6.47;3.42;;;21.80;99.90;;;;;;5081382;28;20465;-70
2023/09/02 09:59:56;;;;;;;9.43;3.78;;;22.00;99.90;;;;;;5094096;28;20049;-70
2023/09/02 10:02:22;;;;;;;6.97;3.83;;;22.00;99.90;;;;;;5073634;28;20055;-71
2023/09/02 10:04:51;;;;;;;6.45;3.38;;;21.90;99.90;;;;;;5074810;28;20120;-71
2023/09/02 10:07:23;;;;;;;7.20;3.80;;;22.00;99.90;;;;;;5097849;28;20450;-71
2023/09/02 10:09:48;;;;;;;6.70;3.65;;;22.00;99.90;;;;;;5098621;28;20023;-71
2023/09/02 10:12:15;;;;;;;6.93;3.90;;;22.00;99.90;;;;;;5081430;28;20043;-71
2023/09/02 10:14:51;;;;;;;6.40;3.50;;;22.10;99.90;;;;;;5099849;28;20070;-69
2023/09/02 10:17:17;;;;;;;6.15;3.42;;;22.10;99.90;;;;;;5065858;28;20084;-70
2023/09/02 10:19:45;;;;;;;6.68;3.40;;;22.20;99.90;;;;;;5078150;28;20052;-70
2023/09/02 10:22:20;;;;;;;5.68;3.42;;;22.40;99.90;;;;;;5103833;28;20044;-70
2023/09/02 10:25:15;;;;;;;7.80;3.10;;;22.70;99.90;;;;;;5103345;28;20040;-70
2023/09/02 10:27:44;;;;;;;8.02;3.63;;;22.70;99.90;;;;;;5084786;28;20110;-69
2023/09/02 10:30:25;;;;;;;7.43;3.20;;;22.80;99.90;;;;;;5098955;28;20043;-71
2023/09/02 10:32:59;;;;;;;7.22;3.70;;;22.70;99.90;;;;;;5101880;28;20069;-71
2023/09/02 10:35:30;;;;;;;8.02;3.55;;;22.90;99.90;;;;;;5081585;28;20101;-70
2023/09/02 10:38:02;;;;;;;7.32;3.45;;;23.00;99.90;;;;;;5088068;28;20117;-71
2023/09/02 10:40:35;;;;;;;8.90;3.90;;;23.10;99.90;;;;;;5098725;28;20036;-70
2023/09/02 10:43:01;;;;;;;5.82;3.58;;;23.20;99.90;;;;;;5078597;28;20044;-72
2023/09/02 10:45:28;;;;;;;6.28;3.78;;;23.10;99.90;;;;;;5093261;28;20031;-71
2023/09/02 10:47:54;;;;;;;4.93;3.67;;;22.90;99.90;;;;;;5086854;28;20210;-70
2023/09/02 10:50:21;;;;;;;5.93;3.33;;;22.80;99.90;;;;;;5086948;28;20177;-76
2023/09/02 10:52:52;;;;;;;10.10;3.80;;;22.90;99.90;;;;;;5094812;28;20085;-77
2023/09/02 10:55:20;;;;;;;9.02;3.92;;;23.00;99.90;;;;;;5096837;28;21962;-76
2023/09/02 10:57:46;;;;;;;7.22;3.75;;;23.00;99.90;;;;;;5096270;28;20501;-76
2023/09/02 11:00:20;;;;;;;7.22;4.18;;;23.10;99.90;;;;;;5090468;28;20059;-76
2023/09/02 11:02:51;;;;;;;7.38;3.90;;;23.10;99.90;;;;;;5092656;28;20376;-76
2023/09/02 11:05:17;;;;;;;8.73;4.13;;;22.90;99.90;;;;;;5089784;28;20082;-75
2023/09/02 11:07:44;;;;;;;8.07;3.38;;;22.60;99.90;;;;;;5097567;28;20578;-76
2023/09/02 11:10:11;;;;;;;6.13;3.40;;;22.30;99.90;;;;;;5101963;28;20153;-75
2023/09/02 11:13:00;;;;;;;6.15;3.45;;;22.20;99.90;;;;;;5095306;28;20036;-77
2023/09/02 11:15:29;;;;;;;5.18;3.33;;;22.30;99.90;;;;;;5094609;28;20044;-76
2023/09/02 11:17:55;;;;;;;5.60;3.88;;;22.40;99.90;;;;;;5093841;28;20044;-75
2023/09/02 11:20:26;;;;;;;5.35;3.50;;;22.60;99.90;;;;;;5094605;27;20498;-76
2023/09/02 11:22:55;;;;;;;6.15;3.45;;;22.70;99.90;;;;;;5095305;28;20043;-76
2023/09/02 11:25:33;;;;;;;7.43;3.08;;;22.60;99.90;;;;;;5097474;28;20036;-76
2023/09/02 11:28:00;;;;;;;4.28;3.33;;;22.50;99.90;;;;;;5102211;28;20040;-76
2023/09/02 11:30:29;;;;;;;5.95;3.38;;;22.50;99.90;;;;;;5080647;28;20043;-76
2023/09/02 11:32:56;;;;;;;5.75;2.85;;;22.50;99.90;;;;;;5083085;28;20124;-78
2023/09/02 11:35:28;;;;;;;6.07;2.53;;;22.60;99.90;;;;;;5105302;27;20036;-76
2023/09/02 11:37:54;;;;;;;7.03;2.83;;;22.80;99.90;;;;;;5097639;28;20408;-75
2023/09/02 11:40:23;;;;;;;3.95;2.15;;;22.80;99.90;;;;;;5100297;28;20614;-75
2023/09/02 11:42:55;;;;;;;5.97;2.60;;;22.70;99.90;;;;;;5108248;27;22110;-76
2023/09/02 11:45:22;;;;;;;4.45;2.60;;;22.60;99.90;;;;;;5105909;28;20184;-76
2023/09/02 11:47:52;;;;;;;5.25;2.40;;;22.60;99.90;;;;;;5105106;28;20157;-75
2023/09/02 11:50:20;;;;;;;10.10;2.75;;;22.60;99.90;;;;;;5101393;28;20078;-76
2023/09/02 11:52:47;;;;;;;4.47;2.17;;;22.40;99.90;;;;;;5108243;27;20502;-75
2023/09/02 11:55:15;;;;;;;4.78;2.10;;;22.40;99.90;;;;;;5082210;28;20142;-75
2023/09/02 11:57:41;;;;;;;4.22;1.98;;;22.40;99.90;;;;;;5102113;28;20043;-76
2023/09/02 12:00:13;;;;;;;3.35;1.58;;;22.50;99.90;;;;;;5100250;28;20154;-74
2023/09/02 12:02:39;;;;;;;3.28;1.80;;;22.60;99.90;;;;;;5102043;28;20510;-74
2023/09/02 12:05:04;;;;;;;4.82;1.80;;;22.80;99.90;;;;;;5085215;28;20040;-75
2023/09/02 12:07:33;;;;;;;4.25;2.17;;;23.00;99.90;;;;;;5080941;28;20119;-73
2023/09/02 12:10:05;;;;;;;3.00;1.58;;;23.00;99.90;;;;;;5103790;28;20131;-73
2023/09/02 12:12:31;;;;;;;3.75;1.70;;;22.80;99.90;;;;;;5094258;28;20114;-74
2023/09/02 12:14:57;;;;;;;4.78;1.73;;;22.50;99.90;;;;;;5075203;28;20131;-74
2023/09/02 12:17:23;;;;;;;5.60;1.98;;;22.50;99.90;;;;;;5060704;28;20495;-73
2023/09/02 12:19:49;;;;;;;3.95;1.40;;;22.70;99.90;;;;;;5060145;28;20044;-73
2023/09/02 12:22:15;;;;;;;4.88;2.10;;;22.90;99.90;;;;;;5074871;28;20098;-75
2023/09/02 12:24:41;;;;;;;4.07;1.73;;;23.00;99.90;;;;;;5076759;28;20055;-75
2023/09/02 12:27:06;;;;;;;4.97;1.58;;;22.90;99.90;;;;;;5101331;28;20155;-74
2023/09/02 12:29:32;;;;;;;3.45;1.88;;;22.90;99.90;;;;;;5061345;28;20403;-74
2023/09/02 12:31:59;;;;;;;2.53;1.20;;;22.90;99.90;;;;;;5095973;28;20111;-73
2023/09/02 12:34:25;;;;;;;4.95;1.70;;;23.00;99.90;;;;;;5065946;28;20056;-74
2023/09/02 12:36:51;;;;;;;3.85;1.33;;;23.00;99.90;;;;;;5099225;28;20478;-72
2023/09/02 12:39:25;;;;;;;2.10;0.90;;;23.00;99.90;;;;;;5100130;28;20134;-72
2023/09/02 12:41:51;;;;;;;3.35;1.00;;;22.90;99.90;;;;;;5096609;28;20044;-73